Decoded Metar for EPLB ( in ) (IATA:) | Meteo·Mobile Aviation Weather
aviador You're here:

EPLB Decoded Metar

in
Report Time2019-07-20 00:30:00
UTC Time2019-07-20 00:47:50
Flight Rules vfr VFR
Wind270° at 07 kt
Visibility9999 m
Phenomena:N/A
Clouds:Few CB 050 Hf
Expected CloudBase > 2,000 ft AGL from Temp-Dew spread
CeilingNone
Temp17°C
Dew Point12°C (73% RH)
AAT15.1°C
QNH1015 hPa
Raw Report
EPLB 200030Z 27007KT 9999 FEW050CB 17/12 Q1015=

Extra information for EPLB:More info

Social comments